Grants, NM (87020)

4:59 PM MST on February 14, 2016 (GMT -0700)
Grants-Milan Municipal | | Change Station
CLOSE
Current Station
Airport
Location: Grants-Milan,
Elevation: 6519 ft
Nearby Weather Stations

Elev 6519 ft 35.17 °N, 107.90 °W | Updated 24 minutes ago

Clear
Clear
58 °F
Feels Like 58 °F
N
17
Wind Variable Wind from WNW
Gusts 29 mph

Today
High -- | Low -- °F
--% Chance of Precip.
Yesterday
High -- | Low -- °F
Precip. -- in
Pressure 30.09 in
Visibility 10.0 miles
Clouds Clear
Dew Point 5 °F
Humidity 12%
Rainfall 0.00 in
Snow Depth Not available.
6:59 AM 5:52 PM
Waxing Crescent, 46% visible
METAR KGNT 142335Z AUTO 30015G25KT 10SM CLR 14/M15 A3009 RMK AO2 T01421150
Pressure 30.09 in
Visibility 10.0 miles
Clouds Clear
Dew Point 5 °F
Humidity 12%
Rainfall 0.00 in
Snow Depth Not available.
6:59 AM 5:52 PM
Waxing Crescent, 46% visible
METAR KGNT 142335Z AUTO 30015G25KT 10SM CLR 14/M15 A3009 RMK AO2 T01421150

10-Day Weather Forecast

Almanac

Astronomy

Feb. 14, 2016 Rise Set
Actual Time
Civil Twilight
Nautical Twilight
Astronomical Twilight
Moon
Length of Visible Light
Length of Day
Tomorrow will be .
, % of the Moon is Illuminated

Today's Extremes

State Highs State Lows

Community

WunderPhotos

Upload Photos

1,892,929 photos uploaded!

WunderBlog® & News

Nearby

Air Quality

  Air Quality AQ Index Pollutant
Not available.

Snow Depth

Station Depth Elevation

Earthquake Activity

City Distance Mag. Time & Date
Minimum magnitude displayed is 2.5.

Coastal Water Temperatures

Place Temperature

Stations

Nearby Weather Stations

Station Location Temp. Windchill Dew Point Humidity Wind Precip. Elev Updated Type
                   

Watches & Warnings

There are currently no watches in effect.